Time,TemperatureF,DewpointF,PressureIn,WindDirection,WindDirectionDegrees,WindSpeedMPH,WindSpeedGustMPH,Humidity,HourlyPrecipIn,Conditions,Clouds,dailyrainin,SolarRadiationWatts/m^2,SoftwareType,DateUTC
2013-07-03 00:02:00,66.0,65.0,-100.00,ENE,76,0.0,0.0,98,0.00,,,0.29,0.000000,,2013-07-03 04:02:00,
2013-07-03 00:34:00,65.0,65.0,-100.00,East,79,0.0,0.0,99,0.00,,,0.29,0.000000,,2013-07-03 04:34:00,
2013-07-03 00:43:00,65.0,65.0,-100.00,East,79,0.0,0.0,99,0.00,,,0.29,0.000000,,2013-07-03 04:43:00,
2013-07-03 00:52:00,65.0,65.0,-100.00,East,79,0.0,0.0,99,0.00,,,0.29,0.000000,,2013-07-03 04:52:00,
2013-07-03 01:02:00,65.0,65.0,-100.00,East,79,0.0,0.0,99,0.00,,,0.29,0.000000,,2013-07-03 05:02:00,
2013-07-03 01:07:00,65.0,65.0,-100.00,ENE,72,0.0,2.0,99,0.00,,,0.20,0.000000,,2013-07-03 05:07:00,
2013-07-03 01:41:00,65.0,65.0,-100.00,ENE,72,0.0,2.0,99,0.00,,,0.20,0.000000,,2013-07-03 05:41:00,
2013-07-03 01:48:00,65.0,65.0,-100.00,ENE,72,0.0,2.0,99,0.00,,,0.20,0.000000,,2013-07-03 05:48:00,
2013-07-03 02:07:00,64.0,64.0,-100.00,ESE,107,0.0,0.0,99,0.00,,,0.01,0.000000,,2013-07-03 06:07:00,
2013-07-03 02:40:00,64.0,64.0,-100.00,ESE,107,0.0,0.0,99,0.00,,,0.01,0.000000,,2013-07-03 06:40:00,
2013-07-03 02:50:00,64.0,64.0,-100.00,ESE,107,0.0,0.0,99,0.00,,,0.01,0.000000,,2013-07-03 06:50:00,
2013-07-03 02:58:00,64.0,64.0,-100.00,ESE,107,0.0,0.0,99,0.00,,,0.01,0.000000,,2013-07-03 06:58:00,
2013-07-03 03:40:00,65.0,65.0,-100.00,SE,125,1.0,2.0,99,0.00,,,0.01,0.000000,,2013-07-03 07:40:00,
2013-07-03 03:48:00,65.0,65.0,-100.00,SE,125,1.0,2.0,99,0.00,,,0.01,0.000000,,2013-07-03 07:48:00,
2013-07-03 04:02:00,65.0,65.0,-100.00,SE,125,1.0,2.0,99,0.00,,,0.01,0.000000,,2013-07-03 08:02:00,
2013-07-03 04:07:00,65.0,65.0,-100.00,ESE,116,2.0,3.0,99,0.00,,,0.00,0.000000,,2013-07-03 08:07:00,
2013-07-03 04:38:00,65.0,65.0,-100.00,ESE,116,2.0,3.0,99,0.00,,,0.00,0.000000,,2013-07-03 08:38:00,
2013-07-03 04:48:00,65.0,65.0,-100.00,ESE,116,2.0,3.0,99,0.00,,,0.00,0.000000,,2013-07-03 08:48:00,
2013-07-03 04:58:00,65.0,65.0,-100.00,ESE,116,2.0,3.0,99,0.00,,,0.00,0.000000,,2013-07-03 08:58:00,
2013-07-03 05:40:00,65.0,65.0,-100.00,East,100,2.0,2.0,99,0.00,,,0.00,0.000000,,2013-07-03 09:40:00,
2013-07-03 05:48:00,65.0,65.0,-100.00,East,100,2.0,2.0,99,0.00,,,0.00,0.000000,,2013-07-03 09:48:00,
2013-07-03 05:58:00,65.0,65.0,-100.00,East,100,2.0,2.0,99,0.00,,,0.00,0.000000,,2013-07-03 09:58:00,
2013-07-03 06:06:00,65.0,65.0,-100.00,East,100,2.0,2.0,99,0.00,,,0.00,0.000000,,2013-07-03 10:06:00,
2013-07-03 06:37:00,64.0,64.0,-100.00,ESE,115,1.0,2.0,99,0.00,,,0.00,4.000000,,2013-07-03 10:37:00,
2013-07-03 06:47:00,64.0,64.0,-100.00,ESE,115,1.0,2.0,99,0.00,,,0.00,4.000000,,2013-07-03 10:47:00,
2013-07-03 06:56:00,64.0,64.0,-100.00,ESE,115,1.0,2.0,99,0.00,,,0.00,4.000000,,2013-07-03 10:56:00,
2013-07-03 07:06:00,64.0,64.0,-100.00,ESE,115,1.0,2.0,99,0.00,,,0.00,4.000000,,2013-07-03 11:06:00,
2013-07-03 07:07:00,66.0,66.0,-100.00,ESE,114,3.0,5.0,99,0.00,,,0.00,64.000000,,2013-07-03 11:07:00,
2013-07-03 07:46:00,66.0,66.0,-100.00,ESE,114,3.0,5.0,99,0.00,,,0.00,64.000000,,2013-07-03 11:46:00,
2013-07-03 07:59:00,66.0,66.0,-100.00,ESE,114,3.0,5.0,99,0.00,,,0.00,64.000000,,2013-07-03 11:59:00,
2013-07-03 08:07:00,70.0,67.0,-100.00,South,174,3.0,7.0,91,0.00,,,0.00,164.000000,,2013-07-03 12:07:00,
2013-07-03 08:38:00,70.0,67.0,-100.00,South,174,3.0,7.0,91,0.00,,,0.00,164.000000,,2013-07-03 12:38:00,
2013-07-03 08:47:00,70.0,67.0,-100.00,South,174,3.0,7.0,91,0.00,,,0.00,164.000000,,2013-07-03 12:47:00,
2013-07-03 08:59:00,70.0,67.0,-100.00,South,174,3.0,7.0,91,0.00,,,0.00,164.000000,,2013-07-03 12:59:00,
2013-07-03 09:07:00,75.0,68.0,-100.00,South,177,4.0,7.0,79,0.00,,,-99.99,410.000000,,2013-07-03 13:07:00,
2013-07-03 09:49:00,75.0,68.0,-100.00,South,177,4.0,7.0,79,0.00,,,-99.99,410.000000,,2013-07-03 13:49:00,
2013-07-03 09:56:00,75.0,68.0,-100.00,South,177,4.0,7.0,79,0.00,,,-99.99,410.000000,,2013-07-03 13:56:00,
2013-07-03 11:06:00,75.0,67.0,-100.00,SW,218,5.0,6.0,76,0.00,,,0.00,428.000000,,2013-07-03 15:06:00,
2013-07-03 11:07:00,77.0,67.0,-100.00,SW,220,4.0,7.0,72,0.00,,,0.00,527.000000,,2013-07-03 15:07:00,
2013-07-03 11:38:00,77.0,67.0,-100.00,SW,220,4.0,7.0,72,0.00,,,0.00,527.000000,,2013-07-03 15:38:00,
2013-07-03 11:49:00,77.0,67.0,-100.00,SW,220,4.0,7.0,72,0.00,,,0.00,527.000000,,2013-07-03 15:49:00,
2013-07-03 11:57:00,77.0,67.0,-100.00,SW,220,4.0,7.0,72,0.00,,,0.00,527.000000,,2013-07-03 15:57:00,
2013-07-03 12:07:00,78.0,68.0,-100.00,South,172,4.0,7.0,72,0.00,,,0.00,514.000000,,2013-07-03 16:07:00,
2013-07-03 12:40:00,78.0,68.0,-100.00,South,172,4.0,7.0,72,0.00,,,0.00,514.000000,,2013-07-03 16:40:00,
2013-07-03 12:47:00,78.0,68.0,-100.00,South,172,4.0,7.0,72,0.00,,,0.00,514.000000,,2013-07-03 16:47:00,
2013-07-03 13:07:00,82.0,69.0,-100.00,SE,145,5.0,8.0,64,0.00,,,0.00,849.000000,,2013-07-03 17:07:00,
2013-07-03 13:43:00,82.0,69.0,-100.00,SE,145,5.0,8.0,64,0.00,,,0.00,849.000000,,2013-07-03 17:43:00,
2013-07-03 13:50:00,82.0,69.0,-100.00,SE,145,5.0,8.0,64,0.00,,,0.00,849.000000,,2013-07-03 17:50:00,
2013-07-03 13:56:00,82.0,69.0,-100.00,SE,145,5.0,8.0,64,0.00,,,0.00,849.000000,,2013-07-03 17:56:00,
2013-07-03 14:39:00,82.0,67.0,-100.00,SE,146,5.0,9.0,61,0.00,,,0.00,894.000000,,2013-07-03 18:39:00,
2013-07-03 14:47:00,82.0,67.0,-100.00,SE,146,5.0,9.0,61,0.00,,,0.00,894.000000,,2013-07-03 18:47:00,
2013-07-03 14:59:00,82.0,67.0,-100.00,SE,146,5.0,9.0,61,0.00,,,0.00,894.000000,,2013-07-03 18:59:00,
2013-07-03 15:05:00,82.0,67.0,-100.00,SE,146,5.0,9.0,61,0.00,,,0.00,894.000000,,2013-07-03 19:05:00,
2013-07-03 15:38:00,83.0,67.0,-100.00,SSW,211,5.0,7.0,58,0.00,,,0.00,721.000000,,2013-07-03 19:38:00,
2013-07-03 15:49:00,83.0,67.0,-100.00,SSW,211,5.0,7.0,58,0.00,,,0.00,721.000000,,2013-07-03 19:49:00,
2013-07-03 15:58:00,83.0,67.0,-100.00,SSW,211,5.0,7.0,58,0.00,,,0.00,721.000000,,2013-07-03 19:58:00,
2013-07-03 16:06:00,83.0,67.0,-100.00,SSW,211,5.0,7.0,58,0.00,,,0.00,721.000000,,2013-07-03 20:06:00,
2013-07-03 16:38:00,85.0,67.0,-100.00,SSW,193,5.0,7.0,55,0.00,,,0.00,831.000000,,2013-07-03 20:38:00,
2013-07-03 16:47:00,85.0,67.0,-100.00,SSW,193,5.0,7.0,55,0.00,,,0.00,831.000000,,2013-07-03 20:47:00,
2013-07-03 16:57:00,85.0,67.0,-100.00,SSW,193,5.0,7.0,55,0.00,,,0.00,831.000000,,2013-07-03 20:57:00,
2013-07-03 17:06:00,85.0,67.0,-100.00,SSW,193,5.0,7.0,55,0.00,,,0.00,831.000000,,2013-07-03 21:06:00,
2013-07-03 17:45:00,83.0,66.0,-100.00,SW,218,3.0,6.0,56,0.00,,,0.00,787.000000,,2013-07-03 21:45:00,
2013-07-03 17:55:00,83.0,66.0,-100.00,SW,218,3.0,6.0,56,0.00,,,0.00,787.000000,,2013-07-03 21:55:00,
2013-07-03 18:06:00,83.0,66.0,-100.00,SW,218,3.0,6.0,56,0.00,,,0.00,787.000000,,2013-07-03 22:06:00,
2013-07-03 18:07:00,83.0,66.0,-100.00,South,178,4.0,7.0,57,0.00,,,0.00,580.000000,,2013-07-03 22:07:00,
2013-07-03 18:38:00,83.0,66.0,-100.00,South,178,4.0,7.0,57,0.00,,,0.00,580.000000,,2013-07-03 22:38:00,
2013-07-03 18:47:00,83.0,66.0,-100.00,South,178,4.0,7.0,57,0.00,,,0.00,580.000000,,2013-07-03 22:47:00,
2013-07-03 18:57:00,83.0,66.0,-100.00,South,178,4.0,7.0,57,0.00,,,0.00,580.000000,,2013-07-03 22:57:00,
2013-07-03 19:40:00,83.0,67.0,-100.00,SSE,161,4.0,5.0,59,0.00,,,0.00,322.000000,,2013-07-03 23:40:00,
2013-07-03 19:46:00,83.0,67.0,-100.00,SSE,161,4.0,5.0,59,0.00,,,0.00,322.000000,,2013-07-03 23:46:00,
2013-07-03 19:56:00,83.0,67.0,-100.00,SSE,161,4.0,5.0,59,0.00,,,0.00,322.000000,,2013-07-03 23:56:00,
2013-07-03 20:06:00,83.0,67.0,-100.00,SSE,161,4.0,5.0,59,0.00,,,0.00,322.000000,,2013-07-04 00:06:00,
2013-07-03 20:38:00,77.0,67.0,-100.00,SE,135,1.0,3.0,71,0.00,,,0.00,80.000000,,2013-07-04 00:38:00,
2013-07-03 20:57:00,77.0,67.0,-100.00,SE,135,1.0,3.0,71,0.00,,,0.00,80.000000,,2013-07-04 00:57:00,
2013-07-03 21:06:00,77.0,67.0,-100.00,SE,135,1.0,3.0,71,0.00,,,0.00,80.000000,,2013-07-04 01:06:00,
2013-07-03 21:07:00,73.0,63.0,-100.00,SE,133,3.0,6.0,70,0.00,,,0.00,19.000000,,2013-07-04 01:07:00,
2013-07-03 21:40:00,73.0,63.0,-100.00,SE,133,3.0,6.0,70,0.00,,,0.00,19.000000,,2013-07-04 01:40:00,
2013-07-03 21:57:00,73.0,63.0,-100.00,SE,133,3.0,6.0,70,0.00,,,0.00,19.000000,,2013-07-04 01:57:00,
2013-07-03 22:49:00,71.0,63.0,-100.00,SE,135,0.0,0.0,77,0.00,,,0.00,0.000000,,2013-07-04 02:49:00,
2013-07-03 22:57:00,71.0,63.0,-100.00,SE,135,0.0,0.0,77,0.00,,,0.00,0.000000,,2013-07-04 02:57:00,
2013-07-03 23:05:00,71.0,63.0,-100.00,SE,135,0.0,0.0,77,0.00,,,0.00,0.000000,,2013-07-04 03:05:00,
2013-07-03 23:46:00,69.0,64.0,-100.00,SE,130,0.0,2.0,85,0.00,,,0.00,0.000000,,2013-07-04 03:46:00,
2013-07-03 23:57:00,69.0,64.0,-100.00,SE,130,0.0,2.0,85,0.00,,,0.00,0.000000,,2013-07-04 03:57:00,